Current | Forecast
Updated: 9:00 PM JST on July 24, 2017
Observed at Takamatsu Airport, Japan
Temperature 81°F
Humidity 89%
Dew Point 77°F
Wind WSW at 5 mph
Pressure 29.65 in (Steady)
Conditions Scattered Clouds
Visibility 6.2 miles
UV 0 out of 16
Clouds (FEW) : 3000 ft
Scattered Clouds (SCT) : 5000 ft
Yesterday's Maximum 90°F
Yesterday's Minimum 77°F approx.
Yesterday's Cooling Degree Days 18 approx.
Sunrise5:10 AM JST
Sunset7:11 PM JST
Moon Rise5:48 AM JST
Moon Set7:49 PM JST
Moon PhaseMoon Phase
New Moon
Raw METARMETAR RJOT 241200Z 24004KT 9999 FEW030 SCT050 BKN/// 27/25 Q1004


Monday
. High: 69° F.
Tuesday
. High: 69° F.
Wednesday
. High: 66° F.
Thursday
. High: 69° F.
Friday
. High: 69° F.
Saturday
. High: 69° F.
Sunday
. High: 71° F.
Monday
. High: 73° F.

Units: English | Metric

Find the Weather for any City, State or Zipcode, or Country:

U.S. State List | Severe Weather | Tropical Storms | Ski Conditions
United States | Canada | Central America | South America | Asia | Europe | Australia | Africa | Islands

Weather Underground

© Copyright 2017
The Weather Company, LLC